sensor_id;sensor_type;location;lat;lon;timestamp;P1;durP1;ratioP1;P2;durP2;ratioP2
3755;SDS011;1893;52.526;13.360;2023-04-24T00:00:02;5.23;;;4.77;;
3755;SDS011;1893;52.526;13.360;2023-04-24T00:02:34;6.00;;;5.43;;
3755;SDS011;1893;52.526;13.360;2023-04-24T00:05:02;5.60;;;5.10;;
3755;SDS011;1893;52.526;13.360;2023-04-24T00:07:29;6.00;;;4.83;;
3755;SDS011;1893;52.526;13.360;2023-04-24T00:09:55;7.60;;;5.70;;
3755;SDS011;1893;52.526;13.360;2023-04-24T00:12:20;5.63;;;5.03;;
3755;SDS011;1893;52.526;13.360;2023-04-24T00:14:46;5.90;;;5.40;;
3755;SDS011;1893;52.526;13.360;2023-04-24T00:17:12;6.00;;;5.43;;
3755;SDS011;1893;52.526;13.360;2023-04-24T00:19:38;5.63;;;5.07;;
3755;SDS011;1893;52.526;13.360;2023-04-24T00:22:03;5.37;;;4.97;;
3755;SDS011;1893;52.526;13.360;2023-04-24T00:24:29;5.30;;;4.87;;
3755;SDS011;1893;52.526;13.360;2023-04-24T00:26:55;5.27;;;4.77;;
3755;SDS011;1893;52.526;13.360;2023-04-24T00:29:21;5.70;;;5.20;;
3755;SDS011;1893;52.526;13.360;2023-04-24T00:31:46;6.37;;;5.77;;
3755;SDS011;1893;52.526;13.360;2023-04-24T00:34:12;5.80;;;5.30;;
3755;SDS011;1893;52.526;13.360;2023-04-24T00:36:38;7.30;;;5.33;;
3755;SDS011;1893;52.526;13.360;2023-04-24T00:39:04;4.90;;;4.50;;
3755;SDS011;1893;52.526;13.360;2023-04-24T00:41:29;6.27;;;5.77;;
3755;SDS011;1893;52.526;13.360;2023-04-24T00:43:55;6.03;;;5.50;;
3755;SDS011;1893;52.526;13.360;2023-04-24T00:46:21;6.27;;;5.00;;
3755;SDS011;1893;52.526;13.360;2023-04-24T00:48:47;6.17;;;5.67;;
3755;SDS011;1893;52.526;13.360;2023-04-24T00:51:12;5.83;;;5.43;;
3755;SDS011;1893;52.526;13.360;2023-04-24T00:53:38;5.80;;;5.37;;
3755;SDS011;1893;52.526;13.360;2023-04-24T00:56:04;6.30;;;5.70;;
3755;SDS011;1893;52.526;13.360;2023-04-24T00:58:30;6.87;;;5.43;;
3755;SDS011;1893;52.526;13.360;2023-04-24T01:00:56;8.70;;;6.00;;
3755;SDS011;1893;52.526;13.360;2023-04-24T01:03:24;6.90;;;5.77;;
3755;SDS011;1893;52.526;13.360;2023-04-24T01:05:54;5.97;;;5.47;;
3755;SDS011;1893;52.526;13.360;2023-04-24T01:08:20;7.83;;;5.80;;
3755;SDS011;1893;52.526;13.360;2023-04-24T01:10:48;5.53;;;5.00;;
3755;SDS011;1893;52.526;13.360;2023-04-24T01:13:21;5.83;;;5.33;;
3755;SDS011;1893;52.526;13.360;2023-04-24T01:15:47;6.13;;;5.00;;
3755;SDS011;1893;52.526;13.360;2023-04-24T01:18:13;5.90;;;5.40;;
3755;SDS011;1893;52.526;13.360;2023-04-24T01:20:42;6.33;;;5.73;;
3755;SDS011;1893;52.526;13.360;2023-04-24T01:23:10;6.00;;;5.43;;
3755;SDS011;1893;52.526;13.360;2023-04-24T01:25:36;6.43;;;5.77;;
3755;SDS011;1893;52.526;13.360;2023-04-24T01:28:02;7.00;;;5.47;;
3755;SDS011;1893;52.526;13.360;2023-04-24T01:30:29;8.60;;;5.67;;
3755;SDS011;1893;52.526;13.360;2023-04-24T01:32:55;6.37;;;5.77;;
3755;SDS011;1893;52.526;13.360;2023-04-24T01:35:21;6.53;;;5.93;;
3755;SDS011;1893;52.526;13.360;2023-04-24T01:37:46;6.30;;;5.77;;
3755;SDS011;1893;52.526;13.360;2023-04-24T01:40:12;5.70;;;5.20;;
3755;SDS011;1893;52.526;13.360;2023-04-24T01:42:40;6.07;;;5.47;;
3755;SDS011;1893;52.526;13.360;2023-04-24T01:45:06;6.57;;;5.97;;
3755;SDS011;1893;52.526;13.360;2023-04-24T01:47:34;6.53;;;6.00;;
3755;SDS011;1893;52.526;13.360;2023-04-24T01:50:00;7.10;;;6.07;;
3755;SDS011;1893;52.526;13.360;2023-04-24T01:52:26;5.93;;;5.43;;
3755;SDS011;1893;52.526;13.360;2023-04-24T01:54:52;6.83;;;6.13;;
3755;SDS011;1893;52.526;13.360;2023-04-24T01:57:17;5.93;;;5.43;;
3755;SDS011;1893;52.526;13.360;2023-04-24T01:59:43;6.70;;;6.10;;
3755;SDS011;1893;52.526;13.360;2023-04-24T02:02:09;7.70;;;6.77;;
3755;SDS011;1893;52.526;13.360;2023-04-24T02:04:34;8.17;;;5.80;;
3755;SDS011;1893;52.526;13.360;2023-04-24T02:07:00;8.80;;;6.73;;
3755;SDS011;1893;52.526;13.360;2023-04-24T02:09:26;7.37;;;6.10;;
3755;SDS011;1893;52.526;13.360;2023-04-24T02:11:51;6.80;;;6.20;;
3755;SDS011;1893;52.526;13.360;2023-04-24T02:14:17;6.90;;;6.17;;
3755;SDS011;1893;52.526;13.360;2023-04-24T02:16:42;6.53;;;5.93;;
3755;SDS011;1893;52.526;13.360;2023-04-24T02:19:08;6.63;;;5.87;;
3755;SDS011;1893;52.526;13.360;2023-04-24T02:21:34;8.27;;;6.70;;
3755;SDS011;1893;52.526;13.360;2023-04-24T02:24:00;7.43;;;6.73;;
3755;SDS011;1893;52.526;13.360;2023-04-24T02:26:25;6.70;;;6.00;;
3755;SDS011;1893;52.526;13.360;2023-04-24T02:28:51;7.37;;;6.67;;
3755;SDS011;1893;52.526;13.360;2023-04-24T02:31:17;10.20;;;6.80;;
3755;SDS011;1893;52.526;13.360;2023-04-24T02:33:42;7.80;;;7.10;;
3755;SDS011;1893;52.526;13.360;2023-04-24T02:36:08;8.50;;;7.60;;
3755;SDS011;1893;52.526;13.360;2023-04-24T02:38:34;7.60;;;6.90;;
3755;SDS011;1893;52.526;13.360;2023-04-24T02:40:59;9.07;;;6.63;;
3755;SDS011;1893;52.526;13.360;2023-04-24T02:43:27;10.03;;;7.43;;
3755;SDS011;1893;52.526;13.360;2023-04-24T02:45:52;8.43;;;7.63;;
3755;SDS011;1893;52.526;13.360;2023-04-24T02:48:18;7.90;;;7.10;;
3755;SDS011;1893;52.526;13.360;2023-04-24T02:50:45;9.40;;;7.53;;
3755;SDS011;1893;52.526;13.360;2023-04-24T02:53:11;7.37;;;6.67;;
3755;SDS011;1893;52.526;13.360;2023-04-24T02:55:36;8.57;;;6.80;;
3755;SDS011;1893;52.526;13.360;2023-04-24T02:58:02;8.10;;;7.30;;
3755;SDS011;1893;52.526;13.360;2023-04-24T03:02:55;7.70;;;7.00;;
3755;SDS011;1893;52.526;13.360;2023-04-24T03:05:20;8.87;;;6.93;;
3755;SDS011;1893;52.526;13.360;2023-04-24T03:07:46;8.13;;;7.33;;
3755;SDS011;1893;52.526;13.360;2023-04-24T03:10:12;8.97;;;7.33;;
3755;SDS011;1893;52.526;13.360;2023-04-24T03:12:37;8.87;;;8.00;;
3755;SDS011;1893;52.526;13.360;2023-04-24T03:15:03;8.07;;;7.37;;
3755;SDS011;1893;52.526;13.360;2023-04-24T03:17:29;11.63;;;8.47;;
3755;SDS011;1893;52.526;13.360;2023-04-24T03:19:54;9.10;;;7.80;;
3755;SDS011;1893;52.526;13.360;2023-04-24T03:22:20;9.57;;;7.73;;
3755;SDS011;1893;52.526;13.360;2023-04-24T03:24:45;8.10;;;7.20;;
3755;SDS011;1893;52.526;13.360;2023-04-24T03:27:11;10.20;;;7.20;;
3755;SDS011;1893;52.526;13.360;2023-04-24T03:29:37;9.30;;;7.43;;
3755;SDS011;1893;52.526;13.360;2023-04-24T03:32:02;10.30;;;8.17;;
3755;SDS011;1893;52.526;13.360;2023-04-24T03:34:28;8.70;;;7.40;;
3755;SDS011;1893;52.526;13.360;2023-04-24T03:36:54;9.10;;;7.30;;
3755;SDS011;1893;52.526;13.360;2023-04-24T03:39:19;10.03;;;8.00;;
3755;SDS011;1893;52.526;13.360;2023-04-24T03:41:45;8.27;;;7.47;;
3755;SDS011;1893;52.526;13.360;2023-04-24T03:44:10;9.00;;;8.00;;
3755;SDS011;1893;52.526;13.360;2023-04-24T03:46:36;8.77;;;7.87;;
3755;SDS011;1893;52.526;13.360;2023-04-24T03:49:01;8.20;;;7.37;;
3755;SDS011;1893;52.526;13.360;2023-04-24T03:51:27;8.53;;;6.87;;
3755;SDS011;1893;52.526;13.360;2023-04-24T03:53:55;8.67;;;7.40;;
3755;SDS011;1893;52.526;13.360;2023-04-24T03:56:20;8.17;;;7.37;;
3755;SDS011;1893;52.526;13.360;2023-04-24T03:58:46;8.30;;;6.97;;
3755;SDS011;1893;52.526;13.360;2023-04-24T04:01:12;8.60;;;7.67;;
3755;SDS011;1893;52.526;13.360;2023-04-24T04:03:38;8.57;;;7.70;;
3755;SDS011;1893;52.526;13.360;2023-04-24T04:06:03;7.70;;;6.87;;
3755;SDS011;1893;52.526;13.360;2023-04-24T04:08:29;9.30;;;7.17;;
3755;SDS011;1893;52.526;13.360;2023-04-24T04:10:55;9.17;;;7.80;;
3755;SDS011;1893;52.526;13.360;2023-04-24T04:13:21;7.37;;;6.70;;
3755;SDS011;1893;52.526;13.360;2023-04-24T04:15:46;7.20;;;6.03;;
3755;SDS011;1893;52.526;13.360;2023-04-24T04:18:12;7.67;;;6.90;;
3755;SDS011;1893;52.526;13.360;2023-04-24T04:20:37;7.60;;;6.83;;
3755;SDS011;1893;52.526;13.360;2023-04-24T04:23:03;7.70;;;6.83;;
3755;SDS011;1893;52.526;13.360;2023-04-24T04:25:29;7.30;;;6.53;;
3755;SDS011;1893;52.526;13.360;2023-04-24T04:27:54;8.13;;;7.13;;
3755;SDS011;1893;52.526;13.360;2023-04-24T04:30:20;11.00;;;6.13;;
3755;SDS011;1893;52.526;13.360;2023-04-24T04:32:45;6.30;;;5.70;;
3755;SDS011;1893;52.526;13.360;2023-04-24T04:35:11;7.83;;;6.60;;
3755;SDS011;1893;52.526;13.360;2023-04-24T04:37:37;8.67;;;6.77;;
3755;SDS011;1893;52.526;13.360;2023-04-24T04:40:03;6.83;;;6.13;;
3755;SDS011;1893;52.526;13.360;2023-04-24T04:42:32;6.40;;;5.80;;
3755;SDS011;1893;52.526;13.360;2023-04-24T04:45:05;9.57;;;7.23;;
3755;SDS011;1893;52.526;13.360;2023-04-24T04:47:34;9.30;;;6.87;;
3755;SDS011;1893;52.526;13.360;2023-04-24T04:50:00;4.63;;;4.23;;
3755;SDS011;1893;52.526;13.360;2023-04-24T04:52:26;6.30;;;5.70;;
3755;SDS011;1893;52.526;13.360;2023-04-24T04:54:52;6.43;;;5.80;;
3755;SDS011;1893;52.526;13.360;2023-04-24T04:57:17;6.53;;;5.93;;
3755;SDS011;1893;52.526;13.360;2023-04-24T04:59:43;6.87;;;5.43;;
3755;SDS011;1893;52.526;13.360;2023-04-24T05:02:08;5.97;;;5.47;;
3755;SDS011;1893;52.526;13.360;2023-04-24T05:04:34;7.50;;;5.53;;
3755;SDS011;1893;52.526;13.360;2023-04-24T05:07:00;5.30;;;4.80;;
3755;SDS011;1893;52.526;13.360;2023-04-24T05:09:25;5.10;;;4.70;;
3755;SDS011;1893;52.526;13.360;2023-04-24T05:11:52;10.10;;;5.00;;
3755;SDS011;1893;52.526;13.360;2023-04-24T05:14:18;6.10;;;5.17;;
3755;SDS011;1893;52.526;13.360;2023-04-24T05:16:44;5.10;;;4.57;;
3755;SDS011;1893;52.526;13.360;2023-04-24T05:19:09;7.83;;;5.20;;
3755;SDS011;1893;52.526;13.360;2023-04-24T05:21:36;5.23;;;4.47;;
3755;SDS011;1893;52.526;13.360;2023-04-24T05:24:02;6.23;;;4.43;;
3755;SDS011;1893;52.526;13.360;2023-04-24T05:26:28;5.27;;;4.53;;
3755;SDS011;1893;52.526;13.360;2023-04-24T05:28:54;7.17;;;4.10;;
3755;SDS011;1893;52.526;13.360;2023-04-24T05:31:19;3.90;;;3.47;;
3755;SDS011;1893;52.526;13.360;2023-04-24T05:33:46;5.80;;;3.63;;
3755;SDS011;1893;52.526;13.360;2023-04-24T05:36:11;4.40;;;3.90;;
3755;SDS011;1893;52.526;13.360;2023-04-24T05:38:37;4.10;;;3.70;;
3755;SDS011;1893;52.526;13.360;2023-04-24T05:41:02;4.80;;;3.63;;
3755;SDS011;1893;52.526;13.360;2023-04-24T05:43:28;5.10;;;3.23;;
3755;SDS011;1893;52.526;13.360;2023-04-24T05:45:53;3.50;;;2.87;;
3755;SDS011;1893;52.526;13.360;2023-04-24T05:48:20;2.90;;;2.70;;
3755;SDS011;1893;52.526;13.360;2023-04-24T05:50:47;3.20;;;2.90;;
3755;SDS011;1893;52.526;13.360;2023-04-24T05:53:13;5.57;;;3.00;;
3755;SDS011;1893;52.526;13.360;2023-04-24T05:55:38;3.13;;;2.70;;
3755;SDS011;1893;52.526;13.360;2023-04-24T05:58:04;2.50;;;2.30;;
3755;SDS011;1893;52.526;13.360;2023-04-24T06:00:31;3.20;;;2.43;;
3755;SDS011;1893;52.526;13.360;2023-04-24T06:02:57;4.47;;;4.03;;
3755;SDS011;1893;52.526;13.360;2023-04-24T06:05:23;4.17;;;3.67;;
3755;SDS011;1893;52.526;13.360;2023-04-24T06:07:49;3.27;;;2.83;;
3755;SDS011;1893;52.526;13.360;2023-04-24T06:10:15;7.27;;;4.27;;
3755;SDS011;1893;52.526;13.360;2023-04-24T06:12:41;6.07;;;4.77;;
3755;SDS011;1893;52.526;13.360;2023-04-24T06:15:06;9.63;;;4.33;;
3755;SDS011;1893;52.526;13.360;2023-04-24T06:17:33;3.40;;;3.10;;
3755;SDS011;1893;52.526;13.360;2023-04-24T06:19:58;3.83;;;3.20;;
3755;SDS011;1893;52.526;13.360;2023-04-24T06:22:24;4.00;;;3.40;;
3755;SDS011;1893;52.526;13.360;2023-04-24T06:24:50;4.17;;;3.00;;
3755;SDS011;1893;52.526;13.360;2023-04-24T06:27:15;3.10;;;2.30;;
3755;SDS011;1893;52.526;13.360;2023-04-24T06:29:41;3.63;;;2.20;;
3755;SDS011;1893;52.526;13.360;2023-04-24T06:32:06;2.83;;;2.63;;
3755;SDS011;1893;52.526;13.360;2023-04-24T06:34:32;3.20;;;2.60;;
3755;SDS011;1893;52.526;13.360;2023-04-24T06:36:59;2.63;;;2.40;;
3755;SDS011;1893;52.526;13.360;2023-04-24T06:39:25;4.20;;;2.53;;
3755;SDS011;1893;52.526;13.360;2023-04-24T06:41:50;2.43;;;2.23;;
3755;SDS011;1893;52.526;13.360;2023-04-24T06:44:16;2.43;;;2.00;;
3755;SDS011;1893;52.526;13.360;2023-04-24T06:46:42;3.83;;;1.60;;
3755;SDS011;1893;52.526;13.360;2023-04-24T06:49:07;4.13;;;1.80;;
3755;SDS011;1893;52.526;13.360;2023-04-24T06:51:33;1.43;;;1.33;;
3755;SDS011;1893;52.526;13.360;2023-04-24T06:53:58;1.63;;;1.53;;
3755;SDS011;1893;52.526;13.360;2023-04-24T06:56:25;1.40;;;1.30;;
3755;SDS011;1893;52.526;13.360;2023-04-24T06:58:51;1.60;;;1.50;;
3755;SDS011;1893;52.526;13.360;2023-04-24T07:01:16;1.57;;;1.13;;
3755;SDS011;1893;52.526;13.360;2023-04-24T07:03:42;1.43;;;1.20;;
3755;SDS011;1893;52.526;13.360;2023-04-24T07:06:08;2.40;;;1.00;;
3755;SDS011;1893;52.526;13.360;2023-04-24T07:08:36;0.90;;;0.90;;
3755;SDS011;1893;52.526;13.360;2023-04-24T07:11:01;3.83;;;1.27;;
3755;SDS011;1893;52.526;13.360;2023-04-24T07:13:27;2.20;;;1.03;;
3755;SDS011;1893;52.526;13.360;2023-04-24T07:15:53;4.30;;;1.23;;
3755;SDS011;1893;52.526;13.360;2023-04-24T07:18:20;1.07;;;1.00;;
3755;SDS011;1893;52.526;13.360;2023-04-24T07:20:46;4.93;;;1.50;;
3755;SDS011;1893;52.526;13.360;2023-04-24T07:23:12;4.57;;;1.10;;
3755;SDS011;1893;52.526;13.360;2023-04-24T07:25:37;2.20;;;1.07;;
3755;SDS011;1893;52.526;13.360;2023-04-24T07:28:04;0.80;;;0.80;;
3755;SDS011;1893;52.526;13.360;2023-04-24T07:30:30;1.40;;;0.80;;
3755;SDS011;1893;52.526;13.360;2023-04-24T07:32:57;2.87;;;1.00;;
3755;SDS011;1893;52.526;13.360;2023-04-24T07:35:23;2.13;;;0.90;;
3755;SDS011;1893;52.526;13.360;2023-04-24T07:37:51;1.40;;;1.07;;
3755;SDS011;1893;52.526;13.360;2023-04-24T07:40:17;4.70;;;0.90;;
3755;SDS011;1893;52.526;13.360;2023-04-24T07:42:43;1.77;;;0.90;;
3755;SDS011;1893;52.526;13.360;2023-04-24T07:45:09;1.30;;;1.20;;
3755;SDS011;1893;52.526;13.360;2023-04-24T07:47:35;1.57;;;0.80;;
3755;SDS011;1893;52.526;13.360;2023-04-24T07:50:02;2.13;;;0.90;;
3755;SDS011;1893;52.526;13.360;2023-04-24T07:52:28;0.83;;;0.83;;
3755;SDS011;1893;52.526;13.360;2023-04-24T07:54:54;1.20;;;1.10;;
3755;SDS011;1893;52.526;13.360;2023-04-24T07:57:23;1.23;;;1.10;;
3755;SDS011;1893;52.526;13.360;2023-04-24T07:59:50;3.53;;;1.00;;
3755;SDS011;1893;52.526;13.360;2023-04-24T08:02:15;2.63;;;0.90;;
3755;SDS011;1893;52.526;13.360;2023-04-24T08:04:41;2.43;;;0.80;;
3755;SDS011;1893;52.526;13.360;2023-04-24T08:07:08;0.80;;;0.80;;
3755;SDS011;1893;52.526;13.360;2023-04-24T08:09:33;1.00;;;0.90;;
3755;SDS011;1893;52.526;13.360;2023-04-24T08:11:59;0.83;;;0.80;;
3755;SDS011;1893;52.526;13.360;2023-04-24T08:14:26;0.80;;;0.80;;
3755;SDS011;1893;52.526;13.360;2023-04-24T08:16:53;0.80;;;0.80;;
3755;SDS011;1893;52.526;13.360;2023-04-24T08:19:20;1.33;;;0.80;;
3755;SDS011;1893;52.526;13.360;2023-04-24T08:21:46;0.80;;;0.70;;
3755;SDS011;1893;52.526;13.360;2023-04-24T08:24:12;1.90;;;0.77;;
3755;SDS011;1893;52.526;13.360;2023-04-24T08:26:37;2.60;;;0.90;;
3755;SDS011;1893;52.526;13.360;2023-04-24T08:29:03;2.80;;;0.70;;
3755;SDS011;1893;52.526;13.360;2023-04-24T08:31:29;2.60;;;1.90;;
3755;SDS011;1893;52.526;13.360;2023-04-24T08:33:55;1.10;;;1.00;;
3755;SDS011;1893;52.526;13.360;2023-04-24T08:36:20;2.43;;;0.83;;
3755;SDS011;1893;52.526;13.360;2023-04-24T08:38:46;1.37;;;0.90;;
3755;SDS011;1893;52.526;13.360;2023-04-24T08:41:12;0.93;;;0.70;;
3755;SDS011;1893;52.526;13.360;2023-04-24T08:43:40;0.87;;;0.80;;
3755;SDS011;1893;52.526;13.360;2023-04-24T08:46:06;2.00;;;0.80;;
3755;SDS011;1893;52.526;13.360;2023-04-24T08:48:33;0.70;;;0.70;;
3755;SDS011;1893;52.526;13.360;2023-04-24T08:50:59;1.10;;;1.00;;
3755;SDS011;1893;52.526;13.360;2023-04-24T08:53:26;0.97;;;0.80;;
3755;SDS011;1893;52.526;13.360;2023-04-24T08:55:52;3.90;;;0.80;;
3755;SDS011;1893;52.526;13.360;2023-04-24T08:58:20;0.80;;;0.80;;
3755;SDS011;1893;52.526;13.360;2023-04-24T09:00:47;2.23;;;0.90;;
3755;SDS011;1893;52.526;13.360;2023-04-24T09:03:13;3.43;;;0.73;;
3755;SDS011;1893;52.526;13.360;2023-04-24T09:05:41;1.20;;;0.80;;
3755;SDS011;1893;52.526;13.360;2023-04-24T09:08:15;1.57;;;0.70;;
3755;SDS011;1893;52.526;13.360;2023-04-24T09:10:42;0.83;;;0.60;;
3755;SDS011;1893;52.526;13.360;2023-04-24T09:13:08;0.93;;;0.60;;
3755;SDS011;1893;52.526;13.360;2023-04-24T09:15:35;1.17;;;0.93;;
3755;SDS011;1893;52.526;13.360;2023-04-24T09:18:04;1.03;;;0.77;;
3755;SDS011;1893;52.526;13.360;2023-04-24T09:20:30;1.27;;;0.80;;
3755;SDS011;1893;52.526;13.360;2023-04-24T09:22:56;1.17;;;0.80;;
3755;SDS011;1893;52.526;13.360;2023-04-24T09:25:24;1.20;;;0.97;;
3755;SDS011;1893;52.526;13.360;2023-04-24T09:27:59;0.90;;;0.70;;
3755;SDS011;1893;52.526;13.360;2023-04-24T09:30:29;1.43;;;0.90;;
3755;SDS011;1893;52.526;13.360;2023-04-24T09:33:12;1.17;;;0.80;;
3755;SDS011;1893;52.526;13.360;2023-04-24T09:35:41;3.63;;;0.90;;
3755;SDS011;1893;52.526;13.360;2023-04-24T09:38:08;4.93;;;0.90;;
3755;SDS011;1893;52.526;13.360;2023-04-24T09:40:34;1.43;;;0.90;;
3755;SDS011;1893;52.526;13.360;2023-04-24T09:43:00;3.17;;;1.10;;
3755;SDS011;1893;52.526;13.360;2023-04-24T09:45:28;4.60;;;1.03;;
3755;SDS011;1893;52.526;13.360;2023-04-24T09:48:00;2.03;;;1.10;;
3755;SDS011;1893;52.526;13.360;2023-04-24T09:50:26;1.10;;;0.90;;
3755;SDS011;1893;52.526;13.360;2023-04-24T09:52:59;1.93;;;1.03;;
3755;SDS011;1893;52.526;13.360;2023-04-24T09:55:28;3.00;;;1.20;;
3755;SDS011;1893;52.526;13.360;2023-04-24T09:57:55;1.10;;;1.00;;
3755;SDS011;1893;52.526;13.360;2023-04-24T10:00:32;3.33;;;0.80;;
3755;SDS011;1893;52.526;13.360;2023-04-24T10:03:02;2.40;;;0.80;;
3755;SDS011;1893;52.526;13.360;2023-04-24T10:05:29;1.33;;;0.90;;
3755;SDS011;1893;52.526;13.360;2023-04-24T10:08:00;2.43;;;1.10;;
3755;SDS011;1893;52.526;13.360;2023-04-24T10:10:30;3.97;;;0.90;;
3755;SDS011;1893;52.526;13.360;2023-04-24T10:12:57;1.10;;;1.00;;
3755;SDS011;1893;52.526;13.360;2023-04-24T10:15:24;1.27;;;0.90;;
3755;SDS011;1893;52.526;13.360;2023-04-24T10:17:51;0.80;;;0.80;;
3755;SDS011;1893;52.526;13.360;2023-04-24T10:20:24;1.23;;;0.70;;
3755;SDS011;1893;52.526;13.360;2023-04-24T10:22:52;1.33;;;0.77;;
3755;SDS011;1893;52.526;13.360;2023-04-24T10:25:19;1.00;;;0.90;;
3755;SDS011;1893;52.526;13.360;2023-04-24T10:27:47;0.90;;;0.80;;
3755;SDS011;1893;52.526;13.360;2023-04-24T10:30:14;3.40;;;1.00;;
3755;SDS011;1893;52.526;13.360;2023-04-24T10:32:40;2.20;;;1.07;;
3755;SDS011;1893;52.526;13.360;2023-04-24T10:35:06;1.10;;;0.80;;
3755;SDS011;1893;52.526;13.360;2023-04-24T10:37:40;0.80;;;0.80;;
3755;SDS011;1893;52.526;13.360;2023-04-24T10:40:11;1.03;;;0.93;;
3755;SDS011;1893;52.526;13.360;2023-04-24T10:42:42;1.10;;;1.00;;
3755;SDS011;1893;52.526;13.360;2023-04-24T10:45:18;1.10;;;1.00;;
3755;SDS011;1893;52.526;13.360;2023-04-24T10:47:59;4.90;;;1.00;;
3755;SDS011;1893;52.526;13.360;2023-04-24T10:50:29;1.90;;;1.17;;
3755;SDS011;1893;52.526;13.360;2023-04-24T10:53:07;1.13;;;0.90;;
3755;SDS011;1893;52.526;13.360;2023-04-24T10:58:11;4.70;;;1.30;;
3755;SDS011;1893;52.526;13.360;2023-04-24T11:00:39;1.03;;;0.83;;
3755;SDS011;1893;52.526;13.360;2023-04-24T11:03:28;1.03;;;0.93;;
3755;SDS011;1893;52.526;13.360;2023-04-24T11:06:05;2.13;;;1.07;;
3755;SDS011;1893;52.526;13.360;2023-04-24T11:08:39;4.70;;;1.20;;
3755;SDS011;1893;52.526;13.360;2023-04-24T11:11:10;3.10;;;1.40;;
3755;SDS011;1893;52.526;13.360;2023-04-24T11:16:21;1.90;;;0.80;;
3755;SDS011;1893;52.526;13.360;2023-04-24T11:19:04;5.40;;;0.80;;
3755;SDS011;1893;52.526;13.360;2023-04-24T11:29:40;2.37;;;0.90;;
3755;SDS011;1893;52.526;13.360;2023-04-24T11:32:14;2.30;;;1.00;;
3755;SDS011;1893;52.526;13.360;2023-04-24T11:34:48;3.77;;;0.90;;
3755;SDS011;1893;52.526;13.360;2023-04-24T11:37:15;1.67;;;1.00;;
3755;SDS011;1893;52.526;13.360;2023-04-24T11:39:41;2.17;;;1.00;;
3755;SDS011;1893;52.526;13.360;2023-04-24T11:42:07;1.33;;;1.20;;
3755;SDS011;1893;52.526;13.360;2023-04-24T11:44:34;4.13;;;1.10;;
3755;SDS011;1893;52.526;13.360;2023-04-24T11:47:03;2.00;;;1.33;;
3755;SDS011;1893;52.526;13.360;2023-04-24T11:49:32;1.53;;;1.33;;
3755;SDS011;1893;52.526;13.360;2023-04-24T11:51:59;2.03;;;1.10;;
3755;SDS011;1893;52.526;13.360;2023-04-24T11:54:26;2.40;;;1.00;;
3755;SDS011;1893;52.526;13.360;2023-04-24T11:56:52;1.43;;;1.00;;
3755;SDS011;1893;52.526;13.360;2023-04-24T11:59:17;3.70;;;1.70;;
3755;SDS011;1893;52.526;13.360;2023-04-24T12:01:46;4.97;;;1.00;;
3755;SDS011;1893;52.526;13.360;2023-04-24T12:04:12;0.80;;;0.80;;
3755;SDS011;1893;52.526;13.360;2023-04-24T12:06:39;1.17;;;0.90;;
3755;SDS011;1893;52.526;13.360;2023-04-24T12:09:04;2.13;;;0.90;;
3755;SDS011;1893;52.526;13.360;2023-04-24T12:11:31;2.90;;;1.00;;
3755;SDS011;1893;52.526;13.360;2023-04-24T12:13:57;2.40;;;1.07;;
3755;SDS011;1893;52.526;13.360;2023-04-24T12:16:22;1.57;;;1.00;;
3755;SDS011;1893;52.526;13.360;2023-04-24T12:18:50;3.27;;;0.90;;
3755;SDS011;1893;52.526;13.360;2023-04-24T12:23:43;1.47;;;0.90;;
3755;SDS011;1893;52.526;13.360;2023-04-24T12:26:10;2.03;;;1.03;;
3755;SDS011;1893;52.526;13.360;2023-04-24T12:28:37;4.20;;;1.20;;
3755;SDS011;1893;52.526;13.360;2023-04-24T12:31:04;2.40;;;1.00;;
3755;SDS011;1893;52.526;13.360;2023-04-24T12:33:34;1.23;;;0.83;;
3755;SDS011;1893;52.526;13.360;2023-04-24T12:36:00;2.90;;;1.10;;
3755;SDS011;1893;52.526;13.360;2023-04-24T12:38:27;1.67;;;0.80;;
3755;SDS011;1893;52.526;13.360;2023-04-24T12:41:05;1.87;;;0.80;;
3755;SDS011;1893;52.526;13.360;2023-04-24T12:43:35;1.00;;;0.80;;
3755;SDS011;1893;52.526;13.360;2023-04-24T12:46:01;1.47;;;0.73;;
3755;SDS011;1893;52.526;13.360;2023-04-24T12:48:28;1.57;;;1.10;;
3755;SDS011;1893;52.526;13.360;2023-04-24T12:50:54;1.67;;;0.77;;
3755;SDS011;1893;52.526;13.360;2023-04-24T12:53:21;2.43;;;0.80;;
3755;SDS011;1893;52.526;13.360;2023-04-24T12:55:47;1.20;;;0.80;;
3755;SDS011;1893;52.526;13.360;2023-04-24T12:58:18;2.20;;;0.90;;
3755;SDS011;1893;52.526;13.360;2023-04-24T13:00:44;1.10;;;0.93;;
3755;SDS011;1893;52.526;13.360;2023-04-24T13:03:11;3.73;;;0.90;;
3755;SDS011;1893;52.526;13.360;2023-04-24T13:05:37;3.23;;;1.10;;
3755;SDS011;1893;52.526;13.360;2023-04-24T13:08:02;2.30;;;1.20;;
3755;SDS011;1893;52.526;13.360;2023-04-24T13:10:28;1.37;;;0.73;;
3755;SDS011;1893;52.526;13.360;2023-04-24T13:12:54;1.40;;;0.77;;
3755;SDS011;1893;52.526;13.360;2023-04-24T13:15:20;1.30;;;1.20;;
3755;SDS011;1893;52.526;13.360;2023-04-24T13:17:45;3.77;;;1.03;;
3755;SDS011;1893;52.526;13.360;2023-04-24T13:20:11;2.33;;;1.00;;
3755;SDS011;1893;52.526;13.360;2023-04-24T13:22:37;2.40;;;1.17;;
3755;SDS011;1893;52.526;13.360;2023-04-24T13:25:02;1.20;;;0.93;;
3755;SDS011;1893;52.526;13.360;2023-04-24T13:27:28;1.13;;;1.00;;
3755;SDS011;1893;52.526;13.360;2023-04-24T13:29:54;1.10;;;0.80;;
3755;SDS011;1893;52.526;13.360;2023-04-24T13:32:19;1.53;;;0.87;;
3755;SDS011;1893;52.526;13.360;2023-04-24T13:34:45;1.20;;;1.00;;
3755;SDS011;1893;52.526;13.360;2023-04-24T13:37:11;1.07;;;0.97;;
3755;SDS011;1893;52.526;13.360;2023-04-24T13:39:36;1.40;;;0.90;;
3755;SDS011;1893;52.526;13.360;2023-04-24T13:42:02;1.43;;;0.80;;
3755;SDS011;1893;52.526;13.360;2023-04-24T13:44:28;0.80;;;0.80;;
3755;SDS011;1893;52.526;13.360;2023-04-24T13:46:54;4.83;;;0.90;;
3755;SDS011;1893;52.526;13.360;2023-04-24T13:49:22;2.50;;;0.97;;
3755;SDS011;1893;52.526;13.360;2023-04-24T13:51:49;1.10;;;1.00;;
3755;SDS011;1893;52.526;13.360;2023-04-24T13:54:15;3.13;;;1.13;;
3755;SDS011;1893;52.526;13.360;2023-04-24T13:56:41;1.00;;;0.90;;
3755;SDS011;1893;52.526;13.360;2023-04-24T13:59:07;1.57;;;0.90;;
3755;SDS011;1893;52.526;13.360;2023-04-24T14:01:33;1.93;;;0.90;;
3755;SDS011;1893;52.526;13.360;2023-04-24T14:03:59;1.37;;;0.83;;
3755;SDS011;1893;52.526;13.360;2023-04-24T14:06:24;1.10;;;1.00;;
3755;SDS011;1893;52.526;13.360;2023-04-24T14:08:50;0.87;;;0.80;;
3755;SDS011;1893;52.526;13.360;2023-04-24T14:11:16;0.93;;;0.90;;
3755;SDS011;1893;52.526;13.360;2023-04-24T14:13:43;1.10;;;1.00;;
3755;SDS011;1893;52.526;13.360;2023-04-24T14:16:08;0.90;;;0.90;;
3755;SDS011;1893;52.526;13.360;2023-04-24T14:18:35;1.30;;;0.80;;
3755;SDS011;1893;52.526;13.360;2023-04-24T14:21:01;1.20;;;0.80;;
3755;SDS011;1893;52.526;13.360;2023-04-24T14:23:27;2.83;;;0.90;;
3755;SDS011;1893;52.526;13.360;2023-04-24T14:25:53;1.90;;;1.20;;
3755;SDS011;1893;52.526;13.360;2023-04-24T14:28:19;1.33;;;1.00;;
3755;SDS011;1893;52.526;13.360;2023-04-24T14:30:45;1.43;;;0.80;;
3755;SDS011;1893;52.526;13.360;2023-04-24T14:33:11;1.23;;;1.00;;
3755;SDS011;1893;52.526;13.360;2023-04-24T14:35:37;2.17;;;1.00;;
3755;SDS011;1893;52.526;13.360;2023-04-24T14:38:04;0.90;;;0.80;;
3755;SDS011;1893;52.526;13.360;2023-04-24T14:40:30;1.87;;;1.10;;
3755;SDS011;1893;52.526;13.360;2023-04-24T14:42:57;1.80;;;0.90;;
3755;SDS011;1893;52.526;13.360;2023-04-24T14:45:23;6.63;;;1.10;;
3755;SDS011;1893;52.526;13.360;2023-04-24T14:47:49;1.30;;;1.10;;
3755;SDS011;1893;52.526;13.360;2023-04-24T14:50:15;1.37;;;0.97;;
3755;SDS011;1893;52.526;13.360;2023-04-24T14:52:42;4.10;;;0.90;;
3755;SDS011;1893;52.526;13.360;2023-04-24T14:55:07;1.00;;;0.90;;
3755;SDS011;1893;52.526;13.360;2023-04-24T14:57:33;3.53;;;1.10;;
3755;SDS011;1893;52.526;13.360;2023-04-24T15:00:00;2.10;;;1.37;;
3755;SDS011;1893;52.526;13.360;2023-04-24T15:02:26;1.47;;;1.37;;
3755;SDS011;1893;52.526;13.360;2023-04-24T15:04:52;1.17;;;1.07;;
3755;SDS011;1893;52.526;13.360;2023-04-24T15:07:17;1.07;;;1.00;;
3755;SDS011;1893;52.526;13.360;2023-04-24T15:09:43;4.93;;;1.20;;
3755;SDS011;1893;52.526;13.360;2023-04-24T15:12:08;1.63;;;1.10;;
3755;SDS011;1893;52.526;13.360;2023-04-24T15:14:34;1.20;;;1.10;;